EW1066 Weather Reports


Display with metric or nautical units.
time (UTC)temp
F
wind
direction
speed
MPH
gust
MPH
rain 1hr
in
rain 24hr
in
rain mn
in
humidity
%
barometer
mb
20210304114037 29 22 1.0 5.0 0.00 0.00 0.00 100 1021.0
20210304113121 29 0 0.0 3.0 0.00 0.00 0.00 100 1020.7
20210304110314 30 22 1.0 5.0 0.00 0.00 0.00 100 1020.7
20210304104026 31 337 2.0 5.0 0.00 0.00 0.00 100 1020.7
20210304103021 31 316 1.0 3.0 0.00 0.00 0.00 100 1020.3
20210304101019 32 337 2.0 3.0 0.00 0.00 0.00 100 1020.0
20210304094017 32 22 2.0 3.0 0.00 0.00 0.00 99 1020.0
20210304093112 32 0 2.0 3.0 0.00 0.00 0.00 97 1020.0
20210304090026 34 0 1.0 3.0 0.00 0.00 0.00 94 1020.0
20210304085227 35 0 3.0 6.0 0.00 0.00 0.00 92 1020.0
20210304083030 36 45 3.0 7.0 0.00 0.00 0.00 91 1019.6
20210304081019 35 350 4.0 8.0 0.00 0.00 0.00 91 1020.0
20210304074032 37 0 4.0 6.0 0.00 0.00 0.00 86 1020.0
20210304073021 37 22 3.0 7.0 0.00 0.00 0.00 85 1020.0
20210304072041 38 0 5.0 7.0 0.00 0.00 0.00 83 1020.0
20210304071022 38 22 3.0 7.0 0.00 0.00 0.00 81 1020.0
20210304070024 39 22 5.0 7.0 0.00 0.00 0.00 82 1020.0
20210304065120 39 0 3.0 6.0 0.00 0.00 0.00 81 1020.0
20210304064020 39 352 2.0 8.0 0.00 0.00 0.00 84 1020.0
20210304063141 39 0 3.0 7.0 0.00 0.00 0.00 85 1019.6
20210304054018 41 22 2.0 5.0 0.00 0.00 0.00 81 1019.3
20210304051026 44 17 4.0 7.0 0.00 0.00 0.00 78 1019.3
20210304050025 44 359 4.0 7.0 0.00 0.00 0.00 77 1019.3
20210304045115 44 337 3.0 6.0 0.00 0.00 0.00 79 1019.0
20210304040054 45 337 2.0 5.0 0.00 0.00 0.00 73 1018.6
20210304034025 46 336 3.0 7.0 0.00 0.00 0.00 72 1018.6
20210304032636 45 337 3.0 6.0 0.00 0.00 0.00 72 1018.6
20210304030217 45 337 1.0 5.0 0.00 0.00 0.00 69 1018.3
20210304025128 46 292 1.0 6.0 0.00 0.00 0.00 67 1018.3
20210304024022 46 337 3.0 7.0 0.00 0.00 0.00 66 1018.3
20210304020019 50 300 4.0 9.0 0.00 0.00 0.00 60 1017.9
20210304012202 50 328 1.0 5.0 0.00 0.00 0.00 55 1017.9
20210304011025 50 315 3.0 7.0 0.00 0.00 0.00 55 1017.9
20210304002707 54 337 3.0 8.0 0.00 0.00 0.00 49 1017.3
20210303235945 55 337 2.0 5.0 0.00 0.00 0.00 45 1017.3
20210303234032 56 337 2.0 5.0 0.00 0.00 0.00 44 1017.3
20210303233147 57 326 1.0 5.0 0.00 0.00 0.00 42 1016.9
20210303223146 62 270 6.0 12.0 0.00 0.00 0.00 33 1016.3
20210303222348 63 286 6.0 14.0 0.00 0.00 0.00 33 1016.3
20210303215440 63 283 5.0 12.0 0.00 0.00 0.00 30 1015.9
20210303212403 63 252 9.0 15.0 0.00 0.00 0.00 30 1015.6
20210303210138 62 313 7.0 18.0 0.00 0.00 0.00 31 1015.6
20210303205533 63 266 7.0 15.0 0.00 0.00 0.00 31 1015.6
20210303200133 61 252 9.0 13.0 0.00 0.00 0.00 33 1015.9
20210303194029 60 240 7.0 16.0 0.00 0.00 0.00 35 1015.9
20210303193221 60 294 6.0 16.0 0.00 0.00 0.00 36 1016.3
20210303192549 60 230 6.0 15.0 0.00 0.00 0.00 36 1016.3
20210303185949 58 232 8.0 14.0 0.00 0.00 0.00 38 1016.6
20210303184113 58 239 5.0 15.0 0.00 0.00 0.00 39 1016.6
20210303172956 55 264 6.0 12.0 0.00 0.00 0.00 42 1017.9
20210303170216 54 241 5.0 12.0 0.00 0.00 0.00 43 1017.9
20210303165156 53 270 5.0 13.0 0.00 0.00 0.00 45 1017.9
20210303162853 51 237 5.0 12.0 0.00 0.00 0.00 45 1017.9
20210303160425 49 249 7.0 14.0 0.00 0.00 0.00 47 1018.3
20210303154021 47 237 5.0 12.0 0.00 0.00 0.00 52 1018.6
20210303152424 45 275 5.0 12.0 0.00 0.00 0.00 53 1018.6
20210303151233 44 223 5.0 12.0 0.00 0.00 0.00 55 1018.6
20210303150031 43 221 7.0 12.0 0.00 0.00 0.00 54 1018.6
20210303145159 42 205 7.0 12.0 0.00 0.00 0.00 54 1019.0
20210303144028 42 254 6.0 12.0 0.00 0.00 0.00 54 1018.6
20210303143032 40 219 8.0 14.0 0.00 0.00 0.00 54 1018.6
20210303140101 38 241 6.0 12.0 0.00 0.00 0.00 54 1018.6
20210303135251 38 195 6.0 10.0 0.00 0.00 0.00 57 1018.6
20210303134032 36 213 6.0 12.0 0.00 0.00 0.00 58 1018.6
20210303133510 36 202 7.0 9.0 0.00 0.00 0.00 60 1018.6
20210303130027 33 215 4.0 7.0 0.00 0.00 0.00 65 1018.6
20210303125053 32 202 5.0 8.0 0.00 0.00 0.00 68 1018.6
20210303124320 31 225 5.0 8.0 0.00 0.00 0.00 70 1018.3
20210303123452 30 210 3.0 7.0 0.00 0.00 0.00 71 1017.9
20210303122023 29 218 4.0 7.0 0.00 0.00 0.00 71 1017.9